Spiegelgracht — PCEO — position and weather

sailwx.info

Track history (hours):
 
Tides and Currents Weather Stations Pressure Air Temp Water Temp Dewpoint Dewpoint Depression Visibility Wind Speed Wind Dir Waves Ship Positions

Spiegelgracht

Last reported at 2018-Sep-22 06:37 UTC. Time now 2018-Sep-22 07:19 UTC.
Position N 54°26' E 011°39'.

Length 168 m; beam 25 m.

Type: Cargo ship. MMSI: 245789000.

Date/timePositionNaut miles runAvg speedWind from/ knotsBaromVisibWave heightAir tempDewpointWater temp
2018-Sep-22 06:37N 54°26' E 011°39'316.4
2018-Sep-22 06:26N 54°28' E 011°35'617.0
2018-Sep-22 06:03N 54°31' E 011°25'117.7
2018-Sep-22 06:00N 54°31' E 011°24'917.7
2018-Sep-22 05:30N 54°35' E 011°10'817.2
2018-Sep-22 05:03N 54°35' E 010°57'116.1
2018-Sep-22 05:00N 54°35' E 010°55'816.5
2018-Sep-22 04:30N 54°34' E 010°41'716.2
2018-Sep-22 04:03N 54°32' E 010°29'116.0
2018-Sep-22 04:00N 54°32' E 010°28'713.6
2018-Sep-22 03:30N 54°29' E 010°17'512.2
2018-Sep-22 03:03N 54°24' E 010°12'1 9.8
2018-Sep-22 03:00N 54°23' E 010°12'3 5.1
2018-Sep-22 02:30N 54°22' E 010°09'0 0.0
2018-Sep-22 02:03N 54°22' E 010°09'0 0.4
2018-Sep-22 02:00N 54°22' E 010°08'1 2.6
2018-Sep-22 01:30N 54°22' E 010°06'3 7.4
2018-Sep-22 01:03N 54°21' E 010°01'0 6.9
2018-Sep-22 01:00N 54°21' E 010°00'4 7.3
2018-Sep-22 00:30N 54°21' E 009°54'4 8.1
2018-Sep-22 00:03N 54°22' E 009°48'0 8.5
2018-Sep-22 00:00N 54°22' E 009°47'4 8.2
2018-Sep-21 23:30N 54°18' E 009°43'3 7.5
2018-Sep-21 23:03N 54°17' E 009°38'0 9.1
2018-Sep-21 23:00N 54°16' E 009°38'4 7.2
2018-Sep-21 22:30N 54°13' E 009°35'3 7.1
2018-Sep-21 22:03N 54°11' E 009°30'0 8.7
2018-Sep-21 22:00N 54°11' E 009°30'4 8.5
2018-Sep-21 21:30N 54°09' E 009°23'4 7.7
2018-Sep-21 21:03N 54°06' E 009°20'0 8.3
2018-Sep-21 21:00N 54°06' E 009°20'4 7.2
2018-Sep-21 20:30N 54°03' E 009°18'0 0.2
2018-Sep-21 20:03N 54°02' E 009°18'0 1.8
2018-Sep-21 20:00N 54°02' E 009°18'3 6.3
2018-Sep-21 19:31N 53°59' E 009°17'4 8.5
2018-Sep-21 19:04N 53°56' E 009°13'0 7.6
2018-Sep-21 19:00N 53°56' E 009°13'3 6.6
2018-Sep-21 18:31N 53°54' E 009°09'0 0.0
2018-Sep-21 18:03N 53°54' E 009°09'0 0.0
2018-Sep-21 18:00N 53°54' E 009°09'1 2.5
2018-Sep-21 17:30N 53°53' E 009°07'0 0.4
2018-Sep-21 17:03N 53°53' E 009°07'0 0.5
2018-Sep-21 17:00N 53°53' E 009°06'0 0.8
2018-Sep-21 16:30N 53°53' E 009°06'1 1.4
2018-Sep-21 16:03N 53°53' E 009°05'0 3.0
2018-Sep-21 16:00N 53°53' E 009°05'5 9.0
2018-Sep-21 15:30N 53°51' E 008°58'612.8
2018-Sep-21 15:03N 53°50' E 008°48'110.6
2018-Sep-21 15:00N 53°50' E 008°47'1111.9
2018-Sep-21 14:03N 53°58' E 008°33'713.2
2018-Sep-21 13:30N 53°59' E 008°21'614.5
2018-Sep-21 13:03N 53°60' E 008°10'114.3
2018-Sep-21 13:00N 53°60' E 008°08'714.4
2018-Sep-21 12:30N 53°58' E 007°57'614.2
2018-Sep-21 12:04N 53°56' E 007°46'114.6
2018-Sep-21 12:00N 53°56' E 007°45'2814.6
2018-Sep-21 10:05N 53°50' E 006°59'114.5
2018-Sep-21 10:02N 53°50' E 006°57'014.6
2018-Sep-21 10:01N 53°50' E 006°57'714.7
2018-Sep-21 09:31N 53°48' E 006°45'714.9
2018-Sep-21 09:04N 53°46' E 006°34'315.2
2018-Sep-21 08:53N 53°46' E 006°29'615.3
2018-Sep-21 08:31N 53°44' E 006°20'715.2
2018-Sep-21 08:04N 53°42' E 006°09'114.8
2018-Sep-21 08:01N 53°42' E 006°08'714.9
2018-Sep-21 07:30N 53°39' E 005°56'714.8
2018-Sep-21 07:04N 53°37' E 005°45'114.8
2018-Sep-21 07:00N 53°37' E 005°44'715.0
2018-Sep-21 06:31N 53°35' E 005°32'715.0
2018-Sep-21 06:04N 53°33' E 005°21'115.5
2018-Sep-21 06:01N 53°33' E 005°20'714.8
2018-Sep-21 05:31N 53°31' E 005°08'715.0
2018-Sep-21 05:04N 53°29' E 004°57'114.9
2018-Sep-21 05:01N 53°28' E 004°56'714.6
2018-Sep-21 04:31N 53°25' E 004°45'614.1
2018-Sep-21 04:04N 53°20' E 004°39'114.7
2018-Sep-21 04:01N 53°19' E 004°39'714.9
2018-Sep-21 03:31N 53°12' E 004°34'715.1
2018-Sep-21 03:04N 53°07' E 004°27'115.1
2018-Sep-21 03:01N 53°06' E 004°27'714.7
2018-Sep-21 02:31N 52°60' E 004°21'714.8
2018-Sep-21 02:04N 52°54' E 004°17'114.9
2018-Sep-21 02:01N 52°53' E 004°16'714.9
2018-Sep-21 01:31N 52°46' E 004°10'714.9
2018-Sep-21 01:04N 52°42' E 004°02'114.9
2018-Sep-21 01:01N 52°41' E 004°01'815.0
2018-Sep-21 00:30N 52°36' E 003°53'714.9
2018-Sep-21 00:03N 52°31' E 003°45'115.1
2018-Sep-21 00:00N 52°30' E 003°44'714.9
2018-Sep-20 23:30N 52°24' E 003°39'714.8
2018-Sep-20 23:03N 52°18' E 003°33'114.9
2018-Sep-20 23:00N 52°17' E 003°33'815.0
2018-Sep-20 22:30N 52°10' E 003°29'714.4
2018-Sep-20 22:03N 52°04' E 003°25'114.3
2018-Sep-20 22:00N 52°04' E 003°24'714.2
2018-Sep-20 21:30N 51°57' E 003°23'613.6
2018-Sep-20 21:03N 51°51' E 003°20'113.5
2018-Sep-20 21:00N 51°50' E 003°20'611.1
2018-Sep-20 20:30N 51°45' E 003°15'613.6
2018-Sep-20 20:03N 51°40' E 003°19'115.5
2018-Sep-20 20:00N 51°39' E 003°20'714.4
2018-Sep-20 19:31N 51°33' E 003°25'613.8
2018-Sep-20 19:03N 51°28' E 003°31'112.8
2018-Sep-20 19:01N 51°27' E 003°31'611.4
2018-Sep-20 18:30N 51°27' E 003°41'1 2.5
2018-Sep-20 18:03N 51°28' E 003°42'0 0.1
2018-Sep-20 18:00N 51°28' E 003°42'0 0.0
2018-Sep-20 17:30N 51°28' E 003°42'0 0.0
2018-Sep-20 17:03N 51°28' E 003°42'0 0.0
2018-Sep-20 17:00N 51°28' E 003°42'0 0.0
2018-Sep-20 16:30N 51°28' E 003°42'0 0.0
2018-Sep-20 16:03N 51°28' E 003°42'0 0.1
2018-Sep-20 16:00N 51°28' E 003°42'0 0.0
2018-Sep-20 15:30N 51°28' E 003°42'0 0.0
2018-Sep-20 15:03N 51°28' E 003°42'0 0.0
2018-Sep-20 15:01N 51°28' E 003°42'0 0.0
2018-Sep-20 14:30N 51°28' E 003°42'0 0.0
2018-Sep-20 14:00N 51°28' E 003°42'0 0.0
2018-Sep-20 13:30N 51°28' E 003°42'0 0.0
2018-Sep-20 13:03N 51°28' E 003°42'0 0.1
2018-Sep-20 13:00N 51°28' E 003°42'0 0.0
2018-Sep-20 12:30N 51°28' E 003°42'0 0.0
2018-Sep-20 12:03N 51°28' E 003°42'0 0.1
2018-Sep-20 12:00N 51°28' E 003°42'0 0.0
2018-Sep-20 11:31N 51°28' E 003°42'0 0.0
2018-Sep-20 11:03N 51°28' E 003°42'0 0.0
2018-Sep-20 11:00N 51°28' E 003°42'0 0.0
2018-Sep-20 10:30N 51°28' E 003°42'0 0.0
2018-Sep-20 10:03N 51°28' E 003°42'0 0.0
2018-Sep-20 10:00N 51°28' E 003°42'0 0.0
2018-Sep-20 09:30N 51°28' E 003°42'0 0.0
2018-Sep-20 09:03N 51°28' E 003°42'0 0.0
2018-Sep-20 09:01N 51°28' E 003°42'0 0.0
2018-Sep-20 08:30N 51°28' E 003°42'0 0.0
2018-Sep-20 08:04N 51°28' E 003°42'0 0.0
2018-Sep-20 08:01N 51°28' E 003°42'0 0.0
2018-Sep-20 07:30N 51°28' E 003°42'0 0.0
2018-Sep-20 07:03N 51°28' E 003°42'0 0.0
2018-Sep-20 07:01N 51°28' E 003°42'0 0.0
2018-Sep-20 06:30N 51°28' E 003°42'0 0.0
2018-Sep-20 06:03N 51°28' E 003°42'0 0.1
2018-Sep-20 06:01N 51°28' E 003°42'0 0.0
2018-Sep-20 05:30N 51°28' E 003°42'0 0.0
2018-Sep-20 05:03N 51°28' E 003°42'0 0.0
2018-Sep-20 05:00N 51°28' E 003°42'0 0.0
2018-Sep-20 04:30N 51°28' E 003°42'0 0.0
2018-Sep-20 04:03N 51°28' E 003°42'0 0.1
2018-Sep-20 04:00N 51°28' E 003°42'0 0.0
2018-Sep-20 03:30N 51°28' E 003°42'0 0.0
2018-Sep-20 03:04N 51°28' E 003°42'0 0.0
2018-Sep-20 03:00N 51°28' E 003°42'0 0.0
2018-Sep-20 02:31N 51°28' E 003°42'0 0.0
2018-Sep-20 02:03N 51°28' E 003°42'0 0.0
2018-Sep-20 02:01N 51°28' E 003°42'0 0.0
2018-Sep-20 01:30N 51°28' E 003°42'0 0.0
2018-Sep-20 01:03N 51°28' E 003°42'0 0.0
2018-Sep-20 01:00N 51°28' E 003°42'0 0.0
2018-Sep-20 00:30N 51°28' E 003°42'0 0.0
2018-Sep-20 00:03N 51°28' E 003°42'0 0.1
2018-Sep-20 00:00N 51°28' E 003°42'0 0.0
2018-Sep-19 23:30N 51°28' E 003°42'0 0.0
2018-Sep-19 23:03N 51°28' E 003°42'0 0.0
2018-Sep-19 23:00N 51°28' E 003°42'0 0.0
2018-Sep-19 22:31N 51°28' E 003°42'0 0.0
2018-Sep-19 22:03N 51°28' E 003°42'0 0.0
2018-Sep-19 22:00N 51°28' E 003°42'0 0.0
2018-Sep-19 21:30N 51°28' E 003°42'0 0.0
2018-Sep-19 21:03N 51°28' E 003°42'0 0.1
2018-Sep-19 21:00N 51°28' E 003°42'0 0.0
2018-Sep-19 20:30N 51°28' E 003°42'0 0.0
2018-Sep-19 20:04N 51°28' E 003°42'0 0.0
2018-Sep-19 20:01N 51°28' E 003°42'0 0.0
2018-Sep-19 19:31N 51°28' E 003°42'0 0.0
2018-Sep-19 19:03N 51°28' E 003°42'0 0.0
2018-Sep-19 19:00N 51°28' E 003°42'0 0.0
2018-Sep-19 18:30N 51°28' E 003°42'0 0.0
2018-Sep-19 18:03N 51°28' E 003°42'0 0.0
2018-Sep-19 18:00N 51°28' E 003°42'0 0.0
2018-Sep-19 17:30N 51°28' E 003°42'0 0.5
2018-Sep-19 17:04N 51°28' E 003°42'0 1.2
2018-Sep-19 17:01N 51°28' E 003°42'1 1.9
2018-Sep-19 16:30N 51°27' E 003°43'0 0.9
2018-Sep-19 16:01N 51°27' E 003°42'0 0.0
2018-Sep-19 15:58N 51°27' E 003°42'0 0.0
2018-Sep-19 15:28N 51°27' E 003°42'0 0.0
2018-Sep-19 15:01N 51°27' E 003°42'0 0.0
2018-Sep-19 14:58N 51°27' E 003°42'0 0.0
2018-Sep-19 13:58N 51°27' E 003°42'0 0.0
2018-Sep-19 13:28N 51°27' E 003°42'0 0.0
2018-Sep-19 13:01N 51°27' E 003°42'0 0.1
2018-Sep-19 12:58N 51°27' E 003°42'0 0.0
2018-Sep-19 12:28N 51°27' E 003°42'0 0.0
2018-Sep-19 12:01N 51°27' E 003°42'0 0.0
2018-Sep-19 11:58N 51°27' E 003°42'0 0.0
2018-Sep-19 11:28N 51°27' E 003°42'0 0.0
2018-Sep-19 11:01N 51°27' E 003°42'0 0.5
2018-Sep-19 10:58N 51°27' E 003°42'0 0.0
2018-Sep-19 10:28N 51°27' E 003°42'0 0.0
2018-Sep-19 10:01N 51°27' E 003°42'0 0.1
2018-Sep-19 09:58N 51°27' E 003°42'0 0.0
2018-Sep-19 09:28N 51°27' E 003°42'0 0.0
2018-Sep-19 08:58N 51°27' E 003°42'0 0.0
2018-Sep-19 08:28N 51°27' E 003°42'0 0.0
2018-Sep-19 08:01N 51°27' E 003°42'0 0.0
2018-Sep-19 07:58N 51°27' E 003°42'0 0.0
2018-Sep-19 07:28N 51°27' E 003°42'0 0.0
2018-Sep-19 07:01N 51°27' E 003°42'0 0.1
2018-Sep-19 06:58N 51°27' E 003°42'0 0.0
2018-Sep-19 06:28N 51°27' E 003°42'0 0.0
2018-Sep-19 06:01N 51°27' E 003°42'0 0.1
2018-Sep-19 05:58N 51°27' E 003°42'0 0.0
2018-Sep-19 05:28N 51°27' E 003°42'0 0.0
2018-Sep-19 05:01N 51°27' E 003°42'0 0.1
2018-Sep-19 04:58N 51°27' E 003°42'0 0.0
2018-Sep-19 04:28N 51°27' E 003°42'0 0.0
2018-Sep-19 04:01N 51°27' E 003°42'0 0.0
2018-Sep-19 03:58N 51°27' E 003°42'0 0.0
2018-Sep-19 03:28N 51°27' E 003°42'0 0.0
2018-Sep-19 03:01N 51°27' E 003°42'0 0.2
2018-Sep-19 02:58N 51°27' E 003°42'0 0.0
2018-Sep-19 02:28N 51°27' E 003°42'0 0.0
2018-Sep-19 02:01N 51°27' E 003°42'0 0.1
2018-Sep-19 01:58N 51°27' E 003°42'0 0.0
2018-Sep-19 01:28N 51°27' E 003°42'0 0.0
2018-Sep-19 01:01N 51°27' E 003°42'0 0.1
2018-Sep-19 00:58N 51°27' E 003°42'0 0.0
2018-Sep-19 00:28N 51°27' E 003°42'0 0.0
2018-Sep-19 00:01N 51°27' E 003°42'0 0.0
2018-Sep-18 23:58N 51°27' E 003°42'0 0.0
2018-Sep-18 23:28N 51°27' E 003°42'0 0.0
2018-Sep-18 23:04N 51°27' E 003°42'0 0.0
2018-Sep-18 23:01N 51°27' E 003°42'0 0.0
2018-Sep-18 22:31N 51°27' E 003°42'0 0.0
2018-Sep-18 22:03N 51°27' E 003°42'0 0.1
2018-Sep-18 22:00N 51°27' E 003°42'0 0.0
2018-Sep-18 21:30N 51°27' E 003°42'0 0.0
2018-Sep-18 21:03N 51°27' E 003°42'0 0.1
2018-Sep-18 21:00N 51°27' E 003°42'0 0.0
2018-Sep-18 20:27N 51°27' E 003°42'0 0.0
2018-Sep-18 20:00N 51°27' E 003°42'0 0.0
2018-Sep-18 19:30N 51°27' E 003°42'0 0.0
2018-Sep-18 19:03N 51°27' E 003°42'0 1.0
2018-Sep-18 18:57N 51°27' E 003°42'0 0.2
2018-Sep-18 18:30N 51°27' E 003°42'0 0.0
2018-Sep-18 18:00N 51°27' E 003°42'0 0.0
2018-Sep-18 17:30N 51°27' E 003°42'0 0.0
2018-Sep-18 17:03N 51°27' E 003°42'0 0.0
2018-Sep-18 17:00N 51°27' E 003°42'0 0.0
2018-Sep-18 16:30N 51°27' E 003°42'0 0.1
2018-Sep-18 16:00N 51°27' E 003°42'0 0.0
2018-Sep-18 15:27N 51°27' E 003°42'0 0.0
2018-Sep-18 15:03N 51°27' E 003°42'0 0.2
2018-Sep-18 15:00N 51°27' E 003°42'0 0.0
2018-Sep-18 14:03N 51°27' E 003°42'0 0.1
2018-Sep-18 14:00N 51°27' E 003°42'0 0.0
2018-Sep-18 13:30N 51°27' E 003°42'0 0.0
2018-Sep-18 13:03N 51°27' E 003°42'0 0.1
2018-Sep-18 13:00N 51°27' E 003°42'0 0.0
2018-Sep-18 12:30N 51°27' E 003°42'0 0.0
2018-Sep-18 12:03N 51°27' E 003°42'0 0.0
2018-Sep-18 12:00N 51°27' E 003°42'0 0.0
2018-Sep-18 11:30N 51°27' E 003°42'0 0.0
2018-Sep-18 11:03N 51°27' E 003°42'0 0.1
2018-Sep-18 11:00N 51°27' E 003°42'0 0.0
2018-Sep-18 10:27N 51°27' E 003°42'0 0.0
2018-Sep-18 10:03N 51°27' E 003°42'0 0.1
2018-Sep-18 10:00N 51°27' E 003°42'0 0.0
2018-Sep-18 09:30N 51°27' E 003°42'0 0.0
2018-Sep-18 09:03N 51°27' E 003°42'0 0.0
2018-Sep-18 09:00N 51°27' E 003°42'0 0.0
2018-Sep-18 08:30N 51°27' E 003°42'0 0.0
2018-Sep-18 08:03N 51°27' E 003°42'0 0.0
2018-Sep-18 08:00N 51°27' E 003°42'0 0.0
2018-Sep-18 07:30N 51°27' E 003°42'0 0.0
2018-Sep-18 07:03N 51°27' E 003°42'0 0.0
2018-Sep-18 07:00N 51°27' E 003°42'0 0.0
2018-Sep-18 06:30N 51°27' E 003°42'0 0.0
2018-Sep-18 06:03N 51°27' E 003°42'0 0.0
2018-Sep-18 06:00N 51°27' E 003°42'0 0.0
2018-Sep-18 05:30N 51°27' E 003°42'0 0.0
2018-Sep-18 05:03N 51°27' E 003°42'0 0.0
2018-Sep-18 05:00N 51°27' E 003°42'0 0.0
2018-Sep-18 04:27N 51°27' E 003°42'0 0.0
2018-Sep-18 04:03N 51°27' E 003°42'0 0.0
2018-Sep-18 04:00N 51°27' E 003°42'0 0.0
2018-Sep-18 03:30N 51°27' E 003°42'0 0.0
2018-Sep-18 03:03N 51°27' E 003°42'0 0.0
2018-Sep-18 03:00N 51°27' E 003°42'0 0.0
2018-Sep-18 02:30N 51°27' E 003°42'0 0.0
2018-Sep-18 02:03N 51°27' E 003°42'0 0.0
2018-Sep-18 02:00N 51°27' E 003°42'0 0.0
2018-Sep-18 01:30N 51°27' E 003°42'0 0.0
2018-Sep-18 01:03N 51°27' E 003°42'0 0.1
2018-Sep-18 01:00N 51°27' E 003°42'0 0.0
2018-Sep-18 00:30N 51°27' E 003°42'0 0.0
2018-Sep-18 00:03N 51°27' E 003°42'0 0.1
2018-Sep-17 23:57N 51°27' E 003°42'0 0.0
2018-Sep-17 23:27N 51°27' E 003°42'0 0.0
2018-Sep-17 23:00N 51°27' E 003°42'0 0.0
2018-Sep-17 22:30N 51°27' E 003°42'0 0.0
2018-Sep-17 22:03N 51°27' E 003°42'0 0.1
2018-Sep-17 22:00N 51°27' E 003°42'0 0.0
2018-Sep-17 21:30N 51°27' E 003°42'0 0.0
2018-Sep-17 21:03N 51°27' E 003°42'0 0.1
2018-Sep-17 21:00N 51°27' E 003°42'0 0.0
2018-Sep-17 20:30N 51°27' E 003°42'0 0.0
2018-Sep-17 20:03N 51°27' E 003°42'0 0.0
2018-Sep-17 20:00N 51°27' E 003°42'0 0.0
2018-Sep-17 19:30N 51°27' E 003°42'0 0.0
2018-Sep-17 19:00N 51°27' E 003°42'0 0.0
2018-Sep-17 18:30N 51°27' E 003°42'0 0.0
2018-Sep-17 18:03N 51°27' E 003°42'0 0.1
2018-Sep-17 18:00N 51°27' E 003°42'0 0.0
2018-Sep-17 17:30N 51°27' E 003°42'0 0.1
2018-Sep-17 17:03N 51°27' E 003°42'0 0.0
2018-Sep-17 17:00N 51°27' E 003°42'0 0.0
2018-Sep-17 16:30N 51°27' E 003°42'0 0.0
2018-Sep-17 16:03N 51°27' E 003°42'0 0.1
2018-Sep-17 16:00N 51°27' E 003°42'0 0.0
2018-Sep-17 15:30N 51°27' E 003°42'0 0.0
2018-Sep-17 15:03N 51°27' E 003°42'0 0.1
2018-Sep-17 15:00N 51°27' E 003°42'0 0.0
2018-Sep-17 14:30N 51°27' E 003°42'0 0.0
2018-Sep-17 14:00N 51°27' E 003°42'0 0.0
2018-Sep-17 13:30N 51°27' E 003°42'0 0.0
2018-Sep-17 13:03N 51°27' E 003°42'0 0.0
2018-Sep-17 13:00N 51°27' E 003°42'0 0.0
2018-Sep-17 12:30N 51°27' E 003°42'0 0.0
2018-Sep-17 12:03N 51°27' E 003°42'0 0.0
2018-Sep-17 12:00N 51°27' E 003°42'0 0.3
2018-Sep-17 11:31N 51°27' E 003°42'1 3.0
2018-Sep-17 11:03N 51°27' E 003°40'0 8.2
2018-Sep-17 11:00N 51°27' E 003°40'4 7.0
2018-Sep-17 10:30N 51°26' E 003°34'4 7.8
2018-Sep-17 10:03N 51°25' E 003°29'010.3
2018-Sep-17 10:00N 51°25' E 003°28'612.3
2018-Sep-17 09:30N 51°24' E 003°18'613.0
2018-Sep-17 09:04N 51°24' E 003°09'113.4
2018-Sep-17 09:00N 51°24' E 003°08'713.3
2018-Sep-17 08:30N 51°23' E 002°57'614.2
2018-Sep-17 08:03N 51°22' E 002°47'114.3
2018-Sep-17 08:00N 51°22' E 002°46'611.6
2018-Sep-17 07:27N 51°22' E 002°36'511.5
2018-Sep-17 07:01N 51°21' E 002°28'013.6
2018-Sep-17 06:59N 51°21' E 002°27'713.8
2018-Sep-17 06:30N 51°17' E 002°18'614.1
2018-Sep-17 06:04N 51°14' E 002°09'114.3
2018-Sep-17 06:01N 51°14' E 002°08'713.1
2018-Sep-17 05:30N 51°11' E 001°59'715.3
2018-Sep-17 05:02N 51°07' E 001°49'116.7
2018-Sep-17 05:00N 51°07' E 001°49'916.8
2018-Sep-17 04:30N 51°01' E 001°39'816.4
2018-Sep-17 04:02N 50°55' E 001°31'117.0
2018-Sep-17 04:00N 50°55' E 001°30'816.7
2018-Sep-17 03:30N 50°47' E 001°26'715.9
2018-Sep-17 03:03N 50°41' E 001°21'116.0
2018-Sep-17 03:00N 50°40' E 001°20'815.9
2018-Sep-17 02:30N 50°35' E 001°11'815.9
2018-Sep-17 01:59N 50°30' E 001°00'815.9
2018-Sep-17 01:29N 50°27' E 000°48'816.2
2018-Sep-17 01:00N 50°26' E 000°37'816.4
2018-Sep-17 00:30N 50°23' E 000°24'716.5
2018-Sep-17 00:03N 50°22' E 000°13'116.4
2018-Sep-17 00:00N 50°21' E 000°12'816.3
2018-Sep-16 23:30N 50°19' W 000°01'716.0
2018-Sep-16 23:04N 50°17' W 000°11'115.9
2018-Sep-16 23:01N 50°17' W 000°13'815.8
2018-Sep-16 22:31N 50°15' W 000°25'715.7
2018-Sep-16 22:04N 50°13' W 000°35'115.3
2018-Sep-16 22:00N 50°13' W 000°37'815.2
2018-Sep-16 21:30N 50°11' W 000°48'714.8
2018-Sep-16 21:03N 50°10' W 000°58'114.7
2018-Sep-16 21:00N 50°09' W 000°59'714.3
2018-Sep-16 20:30N 50°08' W 001°10'613.9
2018-Sep-16 20:03N 50°06' W 001°20'113.4
2018-Sep-16 20:00N 50°06' W 001°20'713.5
2018-Sep-16 19:30N 50°04' W 001°31'613.0
2018-Sep-16 19:04N 50°02' W 001°39'112.8
2018-Sep-16 19:01N 50°02' W 001°40'612.7
2018-Sep-16 18:30N 50°01' W 001°50'612.6
2018-Sep-16 18:03N 49°59' W 001°58'112.7
2018-Sep-16 18:01N 49°59' W 001°59'612.6
2018-Sep-16 17:30N 49°58' W 002°09'16515.3
2018-Sep-16 06:43N 49°28' W 006°20'615.6
2018-Sep-16 06:18N 49°26' W 006°29'27314.9
2018-Sep-15 12:00N 48°36' W 013°18'35414.7 160 / 221017.6 2.2 18.617.417.3
2018-Sep-14 12:00N 47°36' W 022°00'17314.4 130 / 81024.010.8 19.512.417.0
2018-Sep-14 00:00N 47°06' W 026°12'35114.6 320 / 51025.010.8 16.811.717.8
2018-Sep-13 00:00N 46°06' W 034°36'   070 / 51029.0 5.4 15.610.2
Track history (hours):
 
Tides and Currents Weather Stations Pressure Air Temp Water Temp Dewpoint Dewpoint Depression Visibility Wind Speed Wind Dir Waves Ship Positions

Spiegelgracht

Last reported at 2018-Sep-22 06:37 UTC. Time now 2018-Sep-22 07:19 UTC.
Position N 54°26' E 011°39'.

Length 168 m; beam 25 m.

Type: Cargo ship. MMSI: 245789000.

Date/timePositionNaut miles runAvg speedWind from/ knotsBaromVisibWave heightAir tempDewpointWater temp
2018-Sep-22 06:37N 54°26' E 011°39'316.4
2018-Sep-22 06:26N 54°28' E 011°35'617.0
2018-Sep-22 06:03N 54°31' E 011°25'117.7
2018-Sep-22 06:00N 54°31' E 011°24'917.7
2018-Sep-22 05:30N 54°35' E 011°10'817.2
2018-Sep-22 05:03N 54°35' E 010°57'116.1
2018-Sep-22 05:00N 54°35' E 010°55'816.5
2018-Sep-22 04:30N 54°34' E 010°41'716.2
2018-Sep-22 04:03N 54°32' E 010°29'116.0
2018-Sep-22 04:00N 54°32' E 010°28'713.6
2018-Sep-22 03:30N 54°29' E 010°17'512.2
2018-Sep-22 03:03N 54°24' E 010°12'1 9.8
2018-Sep-22 03:00N 54°23' E 010°12'3 5.1
2018-Sep-22 02:30N 54°22' E 010°09'0 0.0
2018-Sep-22 02:03N 54°22' E 010°09'0 0.4
2018-Sep-22 02:00N 54°22' E 010°08'1 2.6
2018-Sep-22 01:30N 54°22' E 010°06'3 7.4
2018-Sep-22 01:03N 54°21' E 010°01'0 6.9
2018-Sep-22 01:00N 54°21' E 010°00'4 7.3
2018-Sep-22 00:30N 54°21' E 009°54'4 8.1
2018-Sep-22 00:03N 54°22' E 009°48'0 8.5
2018-Sep-22 00:00N 54°22' E 009°47'4 8.2
2018-Sep-21 23:30N 54°18' E 009°43'3 7.5
2018-Sep-21 23:03N 54°17' E 009°38'0 9.1
2018-Sep-21 23:00N 54°16' E 009°38'4 7.2
2018-Sep-21 22:30N 54°13' E 009°35'3 7.1
2018-Sep-21 22:03N 54°11' E 009°30'0 8.7
2018-Sep-21 22:00N 54°11' E 009°30'4 8.5
2018-Sep-21 21:30N 54°09' E 009°23'4 7.7
2018-Sep-21 21:03N 54°06' E 009°20'0 8.3
2018-Sep-21 21:00N 54°06' E 009°20'4 7.2
2018-Sep-21 20:30N 54°03' E 009°18'0 0.2
2018-Sep-21 20:03N 54°02' E 009°18'0 1.8
2018-Sep-21 20:00N 54°02' E 009°18'3 6.3
2018-Sep-21 19:31N 53°59' E 009°17'4 8.5
2018-Sep-21 19:04N 53°56' E 009°13'0 7.6
2018-Sep-21 19:00N 53°56' E 009°13'3 6.6
2018-Sep-21 18:31N 53°54' E 009°09'0 0.0
2018-Sep-21 18:03N 53°54' E 009°09'0 0.0
2018-Sep-21 18:00N 53°54' E 009°09'1 2.5
2018-Sep-21 17:30N 53°53' E 009°07'0 0.4
2018-Sep-21 17:03N 53°53' E 009°07'0 0.5
2018-Sep-21 17:00N 53°53' E 009°06'0 0.8
2018-Sep-21 16:30N 53°53' E 009°06'1 1.4
2018-Sep-21 16:03N 53°53' E 009°05'0 3.0
2018-Sep-21 16:00N 53°53' E 009°05'5 9.0
2018-Sep-21 15:30N 53°51' E 008°58'612.8
2018-Sep-21 15:03N 53°50' E 008°48'110.6
2018-Sep-21 15:00N 53°50' E 008°47'1111.9
2018-Sep-21 14:03N 53°58' E 008°33'713.2
2018-Sep-21 13:30N 53°59' E 008°21'614.5
2018-Sep-21 13:03N 53°60' E 008°10'114.3
2018-Sep-21 13:00N 53°60' E 008°08'714.4
2018-Sep-21 12:30N 53°58' E 007°57'614.2
2018-Sep-21 12:04N 53°56' E 007°46'114.6
2018-Sep-21 12:00N 53°56' E 007°45'2814.6
2018-Sep-21 10:05N 53°50' E 006°59'114.5
2018-Sep-21 10:02N 53°50' E 006°57'014.6
2018-Sep-21 10:01N 53°50' E 006°57'714.7
2018-Sep-21 09:31N 53°48' E 006°45'714.9
2018-Sep-21 09:04N 53°46' E 006°34'315.2
2018-Sep-21 08:53N 53°46' E 006°29'615.3
2018-Sep-21 08:31N 53°44' E 006°20'715.2
2018-Sep-21 08:04N 53°42' E 006°09'114.8
2018-Sep-21 08:01N 53°42' E 006°08'714.9
2018-Sep-21 07:30N 53°39' E 005°56'714.8
2018-Sep-21 07:04N 53°37' E 005°45'114.8
2018-Sep-21 07:00N 53°37' E 005°44'715.0
2018-Sep-21 06:31N 53°35' E 005°32'715.0
2018-Sep-21 06:04N 53°33' E 005°21'115.5
2018-Sep-21 06:01N 53°33' E 005°20'714.8
2018-Sep-21 05:31N 53°31' E 005°08'715.0
2018-Sep-21 05:04N 53°29' E 004°57'114.9
2018-Sep-21 05:01N 53°28' E 004°56'714.6
2018-Sep-21 04:31N 53°25' E 004°45'614.1
2018-Sep-21 04:04N 53°20' E 004°39'114.7
2018-Sep-21 04:01N 53°19' E 004°39'714.9
2018-Sep-21 03:31N 53°12' E 004°34'715.1
2018-Sep-21 03:04N 53°07' E 004°27'115.1
2018-Sep-21 03:01N 53°06' E 004°27'714.7
2018-Sep-21 02:31N 52°60' E 004°21'714.8
2018-Sep-21 02:04N 52°54' E 004°17'114.9
2018-Sep-21 02:01N 52°53' E 004°16'714.9
2018-Sep-21 01:31N 52°46' E 004°10'714.9
2018-Sep-21 01:04N 52°42' E 004°02'114.9
2018-Sep-21 01:01N 52°41' E 004°01'815.0
2018-Sep-21 00:30N 52°36' E 003°53'714.9
2018-Sep-21 00:03N 52°31' E 003°45'115.1
2018-Sep-21 00:00N 52°30' E 003°44'714.9
2018-Sep-20 23:30N 52°24' E 003°39'714.8
2018-Sep-20 23:03N 52°18' E 003°33'114.9
2018-Sep-20 23:00N 52°17' E 003°33'815.0
2018-Sep-20 22:30N 52°10' E 003°29'714.4
2018-Sep-20 22:03N 52°04' E 003°25'114.3
2018-Sep-20 22:00N 52°04' E 003°24'714.2
2018-Sep-20 21:30N 51°57' E 003°23'613.6
2018-Sep-20 21:03N 51°51' E 003°20'113.5
2018-Sep-20 21:00N 51°50' E 003°20'611.1
2018-Sep-20 20:30N 51°45' E 003°15'613.6
2018-Sep-20 20:03N 51°40' E 003°19'115.5
2018-Sep-20 20:00N 51°39' E 003°20'714.4
2018-Sep-20 19:31N 51°33' E 003°25'613.8
2018-Sep-20 19:03N 51°28' E 003°31'112.8
2018-Sep-20 19:01N 51°27' E 003°31'611.4
2018-Sep-20 18:30N 51°27' E 003°41'1 2.5
2018-Sep-20 18:03N 51°28' E 003°42'0 0.1
2018-Sep-20 18:00N 51°28' E 003°42'0 0.0
2018-Sep-20 17:30N 51°28' E 003°42'0 0.0
2018-Sep-20 17:03N 51°28' E 003°42'0 0.0
2018-Sep-20 17:00N 51°28' E 003°42'0 0.0
2018-Sep-20 16:30N 51°28' E 003°42'0 0.0
2018-Sep-20 16:03N 51°28' E 003°42'0 0.1
2018-Sep-20 16:00N 51°28' E 003°42'0 0.0
2018-Sep-20 15:30N 51°28' E 003°42'0 0.0
2018-Sep-20 15:03N 51°28' E 003°42'0 0.0
2018-Sep-20 15:01N 51°28' E 003°42'0 0.0
2018-Sep-20 14:30N 51°28' E 003°42'0 0.0
2018-Sep-20 14:00N 51°28' E 003°42'0 0.0
2018-Sep-20 13:30N 51°28' E 003°42'0 0.0
2018-Sep-20 13:03N 51°28' E 003°42'0 0.1
2018-Sep-20 13:00N 51°28' E 003°42'0 0.0
2018-Sep-20 12:30N 51°28' E 003°42'0 0.0
2018-Sep-20 12:03N 51°28' E 003°42'0 0.1
2018-Sep-20 12:00N 51°28' E 003°42'0 0.0
2018-Sep-20 11:31N 51°28' E 003°42'0 0.0
2018-Sep-20 11:03N 51°28' E 003°42'0 0.0
2018-Sep-20 11:00N 51°28' E 003°42'0 0.0
2018-Sep-20 10:30N 51°28' E 003°42'0 0.0
2018-Sep-20 10:03N 51°28' E 003°42'0 0.0
2018-Sep-20 10:00N 51°28' E 003°42'0 0.0
2018-Sep-20 09:30N 51°28' E 003°42'0 0.0
2018-Sep-20 09:03N 51°28' E 003°42'0 0.0
2018-Sep-20 09:01N 51°28' E 003°42'0 0.0
2018-Sep-20 08:30N 51°28' E 003°42'0 0.0
2018-Sep-20 08:04N 51°28' E 003°42'0 0.0
2018-Sep-20 08:01N 51°28' E 003°42'0 0.0
2018-Sep-20 07:30N 51°28' E 003°42'0 0.0
2018-Sep-20 07:03N 51°28' E 003°42'0 0.0
2018-Sep-20 07:01N 51°28' E 003°42'0 0.0
2018-Sep-20 06:30N 51°28' E 003°42'0 0.0
2018-Sep-20 06:03N 51°28' E 003°42'0 0.1
2018-Sep-20 06:01N 51°28' E 003°42'0 0.0
2018-Sep-20 05:30N 51°28' E 003°42'0 0.0
2018-Sep-20 05:03N 51°28' E 003°42'0 0.0
2018-Sep-20 05:00N 51°28' E 003°42'0 0.0
2018-Sep-20 04:30N 51°28' E 003°42'0 0.0
2018-Sep-20 04:03N 51°28' E 003°42'0 0.1
2018-Sep-20 04:00N 51°28' E 003°42'0 0.0
2018-Sep-20 03:30N 51°28' E 003°42'0 0.0
2018-Sep-20 03:04N 51°28' E 003°42'0 0.0
2018-Sep-20 03:00N 51°28' E 003°42'0 0.0
2018-Sep-20 02:31N 51°28' E 003°42'0 0.0
2018-Sep-20 02:03N 51°28' E 003°42'0 0.0
2018-Sep-20 02:01N 51°28' E 003°42'0 0.0
2018-Sep-20 01:30N 51°28' E 003°42'0 0.0
2018-Sep-20 01:03N 51°28' E 003°42'0 0.0
2018-Sep-20 01:00N 51°28' E 003°42'0 0.0
2018-Sep-20 00:30N 51°28' E 003°42'0 0.0
2018-Sep-20 00:03N 51°28' E 003°42'0 0.1
2018-Sep-20 00:00N 51°28' E 003°42'0 0.0
2018-Sep-19 23:30N 51°28' E 003°42'0 0.0
2018-Sep-19 23:03N 51°28' E 003°42'0 0.0
2018-Sep-19 23:00N 51°28' E 003°42'0 0.0
2018-Sep-19 22:31N 51°28' E 003°42'0 0.0
2018-Sep-19 22:03N 51°28' E 003°42'0 0.0
2018-Sep-19 22:00N 51°28' E 003°42'0 0.0
2018-Sep-19 21:30N 51°28' E 003°42'0 0.0
2018-Sep-19 21:03N 51°28' E 003°42'0 0.1
2018-Sep-19 21:00N 51°28' E 003°42'0 0.0
2018-Sep-19 20:30N 51°28' E 003°42'0 0.0
2018-Sep-19 20:04N 51°28' E 003°42'0 0.0
2018-Sep-19 20:01N 51°28' E 003°42'0 0.0
2018-Sep-19 19:31N 51°28' E 003°42'0 0.0
2018-Sep-19 19:03N 51°28' E 003°42'0 0.0
2018-Sep-19 19:00N 51°28' E 003°42'0 0.0
2018-Sep-19 18:30N 51°28' E 003°42'0 0.0
2018-Sep-19 18:03N 51°28' E 003°42'0 0.0
2018-Sep-19 18:00N 51°28' E 003°42'0 0.0
2018-Sep-19 17:30N 51°28' E 003°42'0 0.5
2018-Sep-19 17:04N 51°28' E 003°42'0 1.2
2018-Sep-19 17:01N 51°28' E 003°42'1 1.9
2018-Sep-19 16:30N 51°27' E 003°43'0 0.9
2018-Sep-19 16:01N 51°27' E 003°42'0 0.0
2018-Sep-19 15:58N 51°27' E 003°42'0 0.0
2018-Sep-19 15:28N 51°27' E 003°42'0 0.0
2018-Sep-19 15:01N 51°27' E 003°42'0 0.0
2018-Sep-19 14:58N 51°27' E 003°42'0 0.0
2018-Sep-19 13:58N 51°27' E 003°42'0 0.0
2018-Sep-19 13:28N 51°27' E 003°42'0 0.0
2018-Sep-19 13:01N 51°27' E 003°42'0 0.1
2018-Sep-19 12:58N 51°27' E 003°42'0 0.0
2018-Sep-19 12:28N 51°27' E 003°42'0 0.0
2018-Sep-19 12:01N 51°27' E 003°42'0 0.0
2018-Sep-19 11:58N 51°27' E 003°42'0 0.0
2018-Sep-19 11:28N 51°27' E 003°42'0 0.0
2018-Sep-19 11:01N 51°27' E 003°42'0 0.5
2018-Sep-19 10:58N 51°27' E 003°42'0 0.0
2018-Sep-19 10:28N 51°27' E 003°42'0 0.0
2018-Sep-19 10:01N 51°27' E 003°42'0 0.1
2018-Sep-19 09:58N 51°27' E 003°42'0 0.0
2018-Sep-19 09:28N 51°27' E 003°42'0 0.0
2018-Sep-19 08:58N 51°27' E 003°42'0 0.0
2018-Sep-19 08:28N 51°27' E 003°42'0 0.0
2018-Sep-19 08:01N 51°27' E 003°42'0 0.0
2018-Sep-19 07:58N 51°27' E 003°42'0 0.0
2018-Sep-19 07:28N 51°27' E 003°42'0 0.0
2018-Sep-19 07:01N 51°27' E 003°42'0 0.1
2018-Sep-19 06:58N 51°27' E 003°42'0 0.0
2018-Sep-19 06:28N 51°27' E 003°42'0 0.0
2018-Sep-19 06:01N 51°27' E 003°42'0 0.1
2018-Sep-19 05:58N 51°27' E 003°42'0 0.0
2018-Sep-19 05:28N 51°27' E 003°42'0 0.0
2018-Sep-19 05:01N 51°27' E 003°42'0 0.1
2018-Sep-19 04:58N 51°27' E 003°42'0 0.0
2018-Sep-19 04:28N 51°27' E 003°42'0 0.0
2018-Sep-19 04:01N 51°27' E 003°42'0 0.0
2018-Sep-19 03:58N 51°27' E 003°42'0 0.0
2018-Sep-19 03:28N 51°27' E 003°42'0 0.0
2018-Sep-19 03:01N 51°27' E 003°42'0 0.2
2018-Sep-19 02:58N 51°27' E 003°42'0 0.0
2018-Sep-19 02:28N 51°27' E 003°42'0 0.0
2018-Sep-19 02:01N 51°27' E 003°42'0 0.1
2018-Sep-19 01:58N 51°27' E 003°42'0 0.0
2018-Sep-19 01:28N 51°27' E 003°42'0 0.0
2018-Sep-19 01:01N 51°27' E 003°42'0 0.1
2018-Sep-19 00:58N 51°27' E 003°42'0 0.0
2018-Sep-19 00:28N 51°27' E 003°42'0 0.0
2018-Sep-19 00:01N 51°27' E 003°42'0 0.0
2018-Sep-18 23:58N 51°27' E 003°42'0 0.0
2018-Sep-18 23:28N 51°27' E 003°42'0 0.0
2018-Sep-18 23:04N 51°27' E 003°42'0 0.0
2018-Sep-18 23:01N 51°27' E 003°42'0 0.0
2018-Sep-18 22:31N 51°27' E 003°42'0 0.0
2018-Sep-18 22:03N 51°27' E 003°42'0 0.1
2018-Sep-18 22:00N 51°27' E 003°42'0 0.0
2018-Sep-18 21:30N 51°27' E 003°42'0 0.0
2018-Sep-18 21:03N 51°27' E 003°42'0 0.1
2018-Sep-18 21:00N 51°27' E 003°42'0 0.0
2018-Sep-18 20:27N 51°27' E 003°42'0 0.0
2018-Sep-18 20:00N 51°27' E 003°42'0 0.0
2018-Sep-18 19:30N 51°27' E 003°42'0 0.0
2018-Sep-18 19:03N 51°27' E 003°42'0 1.0
2018-Sep-18 18:57N 51°27' E 003°42'0 0.2
2018-Sep-18 18:30N 51°27' E 003°42'0 0.0
2018-Sep-18 18:00N 51°27' E 003°42'0 0.0
2018-Sep-18 17:30N 51°27' E 003°42'0 0.0
2018-Sep-18 17:03N 51°27' E 003°42'0 0.0
2018-Sep-18 17:00N 51°27' E 003°42'0 0.0
2018-Sep-18 16:30N 51°27' E 003°42'0 0.1
2018-Sep-18 16:00N 51°27' E 003°42'0 0.0
2018-Sep-18 15:27N 51°27' E 003°42'0 0.0
2018-Sep-18 15:03N 51°27' E 003°42'0 0.2
2018-Sep-18 15:00N 51°27' E 003°42'0 0.0
2018-Sep-18 14:03N 51°27' E 003°42'0 0.1
2018-Sep-18 14:00N 51°27' E 003°42'0 0.0
2018-Sep-18 13:30N 51°27' E 003°42'0 0.0
2018-Sep-18 13:03N 51°27' E 003°42'0 0.1
2018-Sep-18 13:00N 51°27' E 003°42'0 0.0
2018-Sep-18 12:30N 51°27' E 003°42'0 0.0
2018-Sep-18 12:03N 51°27' E 003°42'0 0.0
2018-Sep-18 12:00N 51°27' E 003°42'0 0.0
2018-Sep-18 11:30N 51°27' E 003°42'0 0.0
2018-Sep-18 11:03N 51°27' E 003°42'0 0.1
2018-Sep-18 11:00N 51°27' E 003°42'0 0.0
2018-Sep-18 10:27N 51°27' E 003°42'0 0.0
2018-Sep-18 10:03N 51°27' E 003°42'0 0.1
2018-Sep-18 10:00N 51°27' E 003°42'0 0.0
2018-Sep-18 09:30N 51°27' E 003°42'0 0.0
2018-Sep-18 09:03N 51°27' E 003°42'0 0.0
2018-Sep-18 09:00N 51°27' E 003°42'0 0.0
2018-Sep-18 08:30N 51°27' E 003°42'0 0.0
2018-Sep-18 08:03N 51°27' E 003°42'0 0.0
2018-Sep-18 08:00N 51°27' E 003°42'0 0.0
2018-Sep-18 07:30N 51°27' E 003°42'0 0.0
2018-Sep-18 07:03N 51°27' E 003°42'0 0.0
2018-Sep-18 07:00N 51°27' E 003°42'0 0.0
2018-Sep-18 06:30N 51°27' E 003°42'0 0.0
2018-Sep-18 06:03N 51°27' E 003°42'0 0.0
2018-Sep-18 06:00N 51°27' E 003°42'0 0.0
2018-Sep-18 05:30N 51°27' E 003°42'0 0.0
2018-Sep-18 05:03N 51°27' E 003°42'0 0.0
2018-Sep-18 05:00N 51°27' E 003°42'0 0.0
2018-Sep-18 04:27N 51°27' E 003°42'0 0.0
2018-Sep-18 04:03N 51°27' E 003°42'0 0.0
2018-Sep-18 04:00N 51°27' E 003°42'0 0.0
2018-Sep-18 03:30N 51°27' E 003°42'0 0.0
2018-Sep-18 03:03N 51°27' E 003°42'0 0.0
2018-Sep-18 03:00N 51°27' E 003°42'0 0.0
2018-Sep-18 02:30N 51°27' E 003°42'0 0.0
2018-Sep-18 02:03N 51°27' E 003°42'0 0.0
2018-Sep-18 02:00N 51°27' E 003°42'0 0.0
2018-Sep-18 01:30N 51°27' E 003°42'0 0.0
2018-Sep-18 01:03N 51°27' E 003°42'0 0.1
2018-Sep-18 01:00N 51°27' E 003°42'0 0.0
2018-Sep-18 00:30N 51°27' E 003°42'0 0.0
2018-Sep-18 00:03N 51°27' E 003°42'0 0.1
2018-Sep-17 23:57N 51°27' E 003°42'0 0.0
2018-Sep-17 23:27N 51°27' E 003°42'0 0.0
2018-Sep-17 23:00N 51°27' E 003°42'0 0.0
2018-Sep-17 22:30N 51°27' E 003°42'0 0.0
2018-Sep-17 22:03N 51°27' E 003°42'0 0.1
2018-Sep-17 22:00N 51°27' E 003°42'0 0.0
2018-Sep-17 21:30N 51°27' E 003°42'0 0.0
2018-Sep-17 21:03N 51°27' E 003°42'0 0.1
2018-Sep-17 21:00N 51°27' E 003°42'0 0.0
2018-Sep-17 20:30N 51°27' E 003°42'0 0.0
2018-Sep-17 20:03N 51°27' E 003°42'0 0.0
2018-Sep-17 20:00N 51°27' E 003°42'0 0.0
2018-Sep-17 19:30N 51°27' E 003°42'0 0.0
2018-Sep-17 19:00N 51°27' E 003°42'0 0.0
2018-Sep-17 18:30N 51°27' E 003°42'0 0.0
2018-Sep-17 18:03N 51°27' E 003°42'0 0.1
2018-Sep-17 18:00N 51°27' E 003°42'0 0.0
2018-Sep-17 17:30N 51°27' E 003°42'0 0.1
2018-Sep-17 17:03N 51°27' E 003°42'0 0.0
2018-Sep-17 17:00N 51°27' E 003°42'0 0.0
2018-Sep-17 16:30N 51°27' E 003°42'0 0.0
2018-Sep-17 16:03N 51°27' E 003°42'0 0.1
2018-Sep-17 16:00N 51°27' E 003°42'0 0.0
2018-Sep-17 15:30N 51°27' E 003°42'0 0.0
2018-Sep-17 15:03N 51°27' E 003°42'0 0.1
2018-Sep-17 15:00N 51°27' E 003°42'0 0.0
2018-Sep-17 14:30N 51°27' E 003°42'0 0.0
2018-Sep-17 14:00N 51°27' E 003°42'0 0.0
2018-Sep-17 13:30N 51°27' E 003°42'0 0.0
2018-Sep-17 13:03N 51°27' E 003°42'0 0.0
2018-Sep-17 13:00N 51°27' E 003°42'0 0.0
2018-Sep-17 12:30N 51°27' E 003°42'0 0.0
2018-Sep-17 12:03N 51°27' E 003°42'0 0.0
2018-Sep-17 12:00N 51°27' E 003°42'0 0.3
2018-Sep-17 11:31N 51°27' E 003°42'1 3.0
2018-Sep-17 11:03N 51°27' E 003°40'0 8.2
2018-Sep-17 11:00N 51°27' E 003°40'4 7.0
2018-Sep-17 10:30N 51°26' E 003°34'4 7.8
2018-Sep-17 10:03N 51°25' E 003°29'010.3
2018-Sep-17 10:00N 51°25' E 003°28'612.3
2018-Sep-17 09:30N 51°24' E 003°18'613.0
2018-Sep-17 09:04N 51°24' E 003°09'113.4
2018-Sep-17 09:00N 51°24' E 003°08'713.3
2018-Sep-17 08:30N 51°23' E 002°57'614.2
2018-Sep-17 08:03N 51°22' E 002°47'114.3
2018-Sep-17 08:00N 51°22' E 002°46'611.6
2018-Sep-17 07:27N 51°22' E 002°36'511.5
2018-Sep-17 07:01N 51°21' E 002°28'013.6
2018-Sep-17 06:59N 51°21' E 002°27'713.8
2018-Sep-17 06:30N 51°17' E 002°18'614.1
2018-Sep-17 06:04N 51°14' E 002°09'114.3
2018-Sep-17 06:01N 51°14' E 002°08'713.1
2018-Sep-17 05:30N 51°11' E 001°59'715.3
2018-Sep-17 05:02N 51°07' E 001°49'116.7
2018-Sep-17 05:00N 51°07' E 001°49'916.8
2018-Sep-17 04:30N 51°01' E 001°39'816.4
2018-Sep-17 04:02N 50°55' E 001°31'117.0
2018-Sep-17 04:00N 50°55' E 001°30'816.7
2018-Sep-17 03:30N 50°47' E 001°26'715.9
2018-Sep-17 03:03N 50°41' E 001°21'116.0
2018-Sep-17 03:00N 50°40' E 001°20'815.9
2018-Sep-17 02:30N 50°35' E 001°11'815.9
2018-Sep-17 01:59N 50°30' E 001°00'815.9
2018-Sep-17 01:29N 50°27' E 000°48'816.2
2018-Sep-17 01:00N 50°26' E 000°37'816.4
2018-Sep-17 00:30N 50°23' E 000°24'716.5
2018-Sep-17 00:03N 50°22' E 000°13'116.4
2018-Sep-17 00:00N 50°21' E 000°12'816.3
2018-Sep-16 23:30N 50°19' W 000°01'716.0
2018-Sep-16 23:04N 50°17' W 000°11'115.9
2018-Sep-16 23:01N 50°17' W 000°13'815.8
2018-Sep-16 22:31N 50°15' W 000°25'715.7
2018-Sep-16 22:04N 50°13' W 000°35'115.3
2018-Sep-16 22:00N 50°13' W 000°37'815.2
2018-Sep-16 21:30N 50°11' W 000°48'714.8
2018-Sep-16 21:03N 50°10' W 000°58'114.7
2018-Sep-16 21:00N 50°09' W 000°59'714.3
2018-Sep-16 20:30N 50°08' W 001°10'613.9
2018-Sep-16 20:03N 50°06' W 001°20'113.4
2018-Sep-16 20:00N 50°06' W 001°20'713.5
2018-Sep-16 19:30N 50°04' W 001°31'613.0
2018-Sep-16 19:04N 50°02' W 001°39'112.8
2018-Sep-16 19:01N 50°02' W 001°40'612.7
2018-Sep-16 18:30N 50°01' W 001°50'612.6
2018-Sep-16 18:03N 49°59' W 001°58'112.7
2018-Sep-16 18:01N 49°59' W 001°59'612.6
2018-Sep-16 17:30N 49°58' W 002°09'16515.3
2018-Sep-16 06:43N 49°28' W 006°20'615.6
2018-Sep-16 06:18N 49°26' W 006°29'27314.9
2018-Sep-15 12:00N 48°36' W 013°18'35414.7 160 / 221017.6 2.2 18.617.417.3
2018-Sep-14 12:00N 47°36' W 022°00'17314.4 130 / 81024.010.8 19.512.417.0
2018-Sep-14 00:00N 47°06' W 026°12'35114.6 320 / 51025.010.8 16.811.717.8
2018-Sep-13 00:00N 46°06' W 034°36'   070 / 51029.0 5.4 15.610.2

Dump ship's entire track history